sensor_id;sensor_type;location;lat;lon;timestamp;P1;durP1;ratioP1;P2;durP2;ratioP2
26860;SDS011;37676;46.956;7.430;2022-07-29T00:01:18;1.53;;;0.70;;
26860;SDS011;37676;46.956;7.430;2022-07-29T00:03:43;2.15;;;1.20;;
26860;SDS011;37676;46.956;7.430;2022-07-29T00:06:09;1.60;;;0.82;;
26860;SDS011;37676;46.956;7.430;2022-07-29T00:08:34;2.00;;;1.00;;
26860;SDS011;37676;46.956;7.430;2022-07-29T00:10:59;1.42;;;0.70;;
26860;SDS011;37676;46.956;7.430;2022-07-29T00:13:25;1.67;;;0.70;;
26860;SDS011;37676;46.956;7.430;2022-07-29T00:15:50;1.00;;;0.60;;
26860;SDS011;37676;46.956;7.430;2022-07-29T00:18:15;1.10;;;0.60;;
26860;SDS011;37676;46.956;7.430;2022-07-29T00:20:41;1.75;;;0.75;;
26860;SDS011;37676;46.956;7.430;2022-07-29T00:23:06;1.80;;;0.90;;
26860;SDS011;37676;46.956;7.430;2022-07-29T00:25:31;1.75;;;0.70;;
26860;SDS011;37676;46.956;7.430;2022-07-29T00:27:57;2.00;;;0.80;;
26860;SDS011;37676;46.956;7.430;2022-07-29T00:30:22;1.17;;;0.63;;
26860;SDS011;37676;46.956;7.430;2022-07-29T00:32:47;1.60;;;0.85;;
26860;SDS011;37676;46.956;7.430;2022-07-29T00:35:13;1.50;;;0.80;;
26860;SDS011;37676;46.956;7.430;2022-07-29T00:37:56;1.50;;;0.80;;
26860;SDS011;37676;46.956;7.430;2022-07-29T00:40:22;1.13;;;0.68;;
26860;SDS011;37676;46.956;7.430;2022-07-29T00:42:48;2.10;;;0.90;;
26860;SDS011;37676;46.956;7.430;2022-07-29T00:45:15;1.50;;;0.63;;
26860;SDS011;37676;46.956;7.430;2022-07-29T00:47:41;2.33;;;0.80;;
26860;SDS011;37676;46.956;7.430;2022-07-29T00:50:08;1.30;;;0.70;;
26860;SDS011;37676;46.956;7.430;2022-07-29T00:52:35;1.23;;;0.60;;
26860;SDS011;37676;46.956;7.430;2022-07-29T00:55:02;1.52;;;0.60;;
26860;SDS011;37676;46.956;7.430;2022-07-29T00:57:29;1.23;;;0.60;;
26860;SDS011;37676;46.956;7.430;2022-07-29T00:59:55;1.33;;;0.60;;
26860;SDS011;37676;46.956;7.430;2022-07-29T01:02:20;1.80;;;0.80;;
26860;SDS011;37676;46.956;7.430;2022-07-29T01:04:46;1.65;;;0.60;;
26860;SDS011;37676;46.956;7.430;2022-07-29T01:07:11;1.00;;;0.60;;
26860;SDS011;37676;46.956;7.430;2022-07-29T01:09:37;1.50;;;0.65;;
26860;SDS011;37676;46.956;7.430;2022-07-29T01:12:03;1.25;;;0.60;;
26860;SDS011;37676;46.956;7.430;2022-07-29T01:14:30;1.25;;;0.60;;
26860;SDS011;37676;46.956;7.430;2022-07-29T01:17:00;0.90;;;0.60;;
26860;SDS011;37676;46.956;7.430;2022-07-29T01:30:56;0.88;;;0.40;;
26860;SDS011;37676;46.956;7.430;2022-07-29T01:33:23;0.98;;;0.50;;
26860;SDS011;37676;46.956;7.430;2022-07-29T01:36:12;1.60;;;0.77;;
26860;SDS011;37676;46.956;7.430;2022-07-29T01:38:40;1.15;;;0.50;;
26860;SDS011;37676;46.956;7.430;2022-07-29T01:41:08;1.02;;;0.60;;
26860;SDS011;37676;46.956;7.430;2022-07-29T01:43:42;0.80;;;0.45;;
26860;SDS011;37676;46.956;7.430;2022-07-29T01:46:14;1.85;;;0.70;;
26860;SDS011;37676;46.956;7.430;2022-07-29T01:48:49;1.05;;;0.60;;
26860;SDS011;37676;46.956;7.430;2022-07-29T01:51:25;2.13;;;0.70;;
26860;SDS011;37676;46.956;7.430;2022-07-29T01:53:59;1.02;;;0.60;;
26860;SDS011;37676;46.956;7.430;2022-07-29T01:56:29;1.77;;;0.60;;
26860;SDS011;37676;46.956;7.430;2022-07-29T01:58:58;0.88;;;0.50;;
26860;SDS011;37676;46.956;7.430;2022-07-29T02:01:25;1.58;;;0.70;;
26860;SDS011;37676;46.956;7.430;2022-07-29T02:03:52;0.80;;;0.50;;
26860;SDS011;37676;46.956;7.430;2022-07-29T02:06:20;2.03;;;0.80;;
26860;SDS011;37676;46.956;7.430;2022-07-29T02:08:48;1.48;;;0.73;;
26860;SDS011;37676;46.956;7.430;2022-07-29T02:11:16;1.30;;;0.57;;
26860;SDS011;37676;46.956;7.430;2022-07-29T02:13:41;0.90;;;0.50;;
26860;SDS011;37676;46.956;7.430;2022-07-29T02:16:09;1.73;;;0.80;;
26860;SDS011;37676;46.956;7.430;2022-07-29T02:18:36;1.55;;;0.70;;
26860;SDS011;37676;46.956;7.430;2022-07-29T02:21:03;1.20;;;0.60;;
26860;SDS011;37676;46.956;7.430;2022-07-29T02:23:30;1.00;;;0.50;;
26860;SDS011;37676;46.956;7.430;2022-07-29T02:26:00;1.67;;;0.80;;
26860;SDS011;37676;46.956;7.430;2022-07-29T02:28:27;1.10;;;0.50;;
26860;SDS011;37676;46.956;7.430;2022-07-29T02:30:58;1.02;;;0.60;;
26860;SDS011;37676;46.956;7.430;2022-07-29T02:33:25;1.52;;;0.70;;
26860;SDS011;37676;46.956;7.430;2022-07-29T02:35:52;1.60;;;0.70;;
26860;SDS011;37676;46.956;7.430;2022-07-29T02:38:20;1.15;;;0.68;;
26860;SDS011;37676;46.956;7.430;2022-07-29T02:41:15;1.45;;;0.88;;
26860;SDS011;37676;46.956;7.430;2022-07-29T02:43:44;1.20;;;0.60;;
26860;SDS011;37676;46.956;7.430;2022-07-29T02:46:14;1.50;;;0.70;;
26860;SDS011;37676;46.956;7.430;2022-07-29T02:48:46;1.60;;;0.70;;
26860;SDS011;37676;46.956;7.430;2022-07-29T02:51:18;1.75;;;0.77;;
26860;SDS011;37676;46.956;7.430;2022-07-29T02:53:51;0.97;;;0.60;;
26860;SDS011;37676;46.956;7.430;2022-07-29T02:56:20;0.80;;;0.50;;
26860;SDS011;37676;46.956;7.430;2022-07-29T02:58:53;4.32;;;1.10;;
26860;SDS011;37676;46.956;7.430;2022-07-29T03:01:22;6.13;;;1.45;;
26860;SDS011;37676;46.956;7.430;2022-07-29T03:03:49;1.80;;;0.82;;
26860;SDS011;37676;46.956;7.430;2022-07-29T03:06:19;2.03;;;0.88;;
26860;SDS011;37676;46.956;7.430;2022-07-29T03:08:47;1.75;;;0.75;;
26860;SDS011;37676;46.956;7.430;2022-07-29T03:11:14;1.10;;;0.57;;
26860;SDS011;37676;46.956;7.430;2022-07-29T03:13:41;2.10;;;0.98;;
26860;SDS011;37676;46.956;7.430;2022-07-29T03:16:07;2.00;;;0.80;;
26860;SDS011;37676;46.956;7.430;2022-07-29T03:18:33;2.67;;;0.73;;
26860;SDS011;37676;46.956;7.430;2022-07-29T03:20:59;1.83;;;0.70;;
26860;SDS011;37676;46.956;7.430;2022-07-29T03:23:24;1.98;;;0.75;;
26860;SDS011;37676;46.956;7.430;2022-07-29T03:25:53;1.58;;;0.70;;
26860;SDS011;37676;46.956;7.430;2022-07-29T03:28:19;3.17;;;1.13;;
26860;SDS011;37676;46.956;7.430;2022-07-29T03:30:45;2.20;;;0.93;;
26860;SDS011;37676;46.956;7.430;2022-07-29T03:33:11;1.50;;;0.80;;
26860;SDS011;37676;46.956;7.430;2022-07-29T03:35:36;1.77;;;0.82;;
26860;SDS011;37676;46.956;7.430;2022-07-29T03:38:02;2.08;;;1.10;;
26860;SDS011;37676;46.956;7.430;2022-07-29T03:40:32;2.17;;;0.82;;
26860;SDS011;37676;46.956;7.430;2022-07-29T03:43:00;2.42;;;1.10;;
26860;SDS011;37676;46.956;7.430;2022-07-29T03:45:28;2.25;;;1.08;;
26860;SDS011;37676;46.956;7.430;2022-07-29T03:47:56;1.80;;;1.00;;
26860;SDS011;37676;46.956;7.430;2022-07-29T03:50:30;1.83;;;0.80;;
26860;SDS011;37676;46.956;7.430;2022-07-29T03:52:56;1.00;;;0.60;;
26860;SDS011;37676;46.956;7.430;2022-07-29T03:55:23;1.63;;;0.70;;
26860;SDS011;37676;46.956;7.430;2022-07-29T03:57:48;1.75;;;1.13;;
26860;SDS011;37676;46.956;7.430;2022-07-29T04:00:14;1.98;;;0.80;;
26860;SDS011;37676;46.956;7.430;2022-07-29T04:02:40;1.17;;;0.70;;
26860;SDS011;37676;46.956;7.430;2022-07-29T04:05:13;0.95;;;0.60;;
26860;SDS011;37676;46.956;7.430;2022-07-29T04:07:40;1.13;;;0.57;;
26860;SDS011;37676;46.956;7.430;2022-07-29T04:10:05;1.55;;;0.60;;
26860;SDS011;37676;46.956;7.430;2022-07-29T04:12:32;1.88;;;0.70;;
26860;SDS011;37676;46.956;7.430;2022-07-29T04:14:57;1.00;;;0.60;;
26860;SDS011;37676;46.956;7.430;2022-07-29T04:17:22;2.45;;;0.80;;
26860;SDS011;37676;46.956;7.430;2022-07-29T04:19:48;1.65;;;0.60;;
26860;SDS011;37676;46.956;7.430;2022-07-29T04:22:13;1.13;;;0.60;;
26860;SDS011;37676;46.956;7.430;2022-07-29T04:24:38;0.80;;;0.50;;
26860;SDS011;37676;46.956;7.430;2022-07-29T04:27:03;1.00;;;0.40;;
26860;SDS011;37676;46.956;7.430;2022-07-29T04:29:29;0.85;;;0.60;;
26860;SDS011;37676;46.956;7.430;2022-07-29T04:31:54;1.17;;;0.50;;
26860;SDS011;37676;46.956;7.430;2022-07-29T04:34:19;1.00;;;0.60;;
26860;SDS011;37676;46.956;7.430;2022-07-29T04:36:45;1.70;;;0.80;;
26860;SDS011;37676;46.956;7.430;2022-07-29T04:39:10;3.70;;;1.13;;
26860;SDS011;37676;46.956;7.430;2022-07-29T04:41:36;1.65;;;0.60;;
26860;SDS011;37676;46.956;7.430;2022-07-29T04:44:02;1.23;;;0.57;;
26860;SDS011;37676;46.956;7.430;2022-07-29T04:46:29;1.98;;;0.80;;
26860;SDS011;37676;46.956;7.430;2022-07-29T04:48:55;1.60;;;0.75;;
26860;SDS011;37676;46.956;7.430;2022-07-29T04:51:20;2.50;;;1.27;;
26860;SDS011;37676;46.956;7.430;2022-07-29T04:53:46;2.20;;;1.08;;
26860;SDS011;37676;46.956;7.430;2022-07-29T04:56:11;2.07;;;1.07;;
26860;SDS011;37676;46.956;7.430;2022-07-29T04:58:36;1.13;;;0.70;;
26860;SDS011;37676;46.956;7.430;2022-07-29T05:01:02;1.52;;;0.60;;
26860;SDS011;37676;46.956;7.430;2022-07-29T05:03:28;1.70;;;0.80;;
26860;SDS011;37676;46.956;7.430;2022-07-29T05:05:53;1.63;;;0.80;;
26860;SDS011;37676;46.956;7.430;2022-07-29T05:08:19;1.95;;;1.10;;
26860;SDS011;37676;46.956;7.430;2022-07-29T05:10:44;1.85;;;0.80;;
26860;SDS011;37676;46.956;7.430;2022-07-29T05:13:10;1.88;;;0.70;;
26860;SDS011;37676;46.956;7.430;2022-07-29T05:15:35;1.17;;;0.60;;
26860;SDS011;37676;46.956;7.430;2022-07-29T05:18:01;1.35;;;0.65;;
26860;SDS011;37676;46.956;7.430;2022-07-29T05:20:27;1.20;;;0.60;;
26860;SDS011;37676;46.956;7.430;2022-07-29T05:22:57;1.27;;;0.70;;
26860;SDS011;37676;46.956;7.430;2022-07-29T05:25:24;1.70;;;0.93;;
26860;SDS011;37676;46.956;7.430;2022-07-29T05:27:53;1.33;;;0.80;;
26860;SDS011;37676;46.956;7.430;2022-07-29T05:30:18;1.50;;;0.80;;
26860;SDS011;37676;46.956;7.430;2022-07-29T05:32:45;2.25;;;1.10;;
26860;SDS011;37676;46.956;7.430;2022-07-29T05:35:11;1.13;;;0.65;;
26860;SDS011;37676;46.956;7.430;2022-07-29T05:37:38;2.00;;;0.82;;
26860;SDS011;37676;46.956;7.430;2022-07-29T05:40:03;1.50;;;0.65;;
26860;SDS011;37676;46.956;7.430;2022-07-29T05:42:29;0.82;;;0.50;;
26860;SDS011;37676;46.956;7.430;2022-07-29T05:44:55;0.80;;;0.40;;
26860;SDS011;37676;46.956;7.430;2022-07-29T05:47:20;1.02;;;0.55;;
26860;SDS011;37676;46.956;7.430;2022-07-29T05:49:46;1.33;;;0.70;;
26860;SDS011;37676;46.956;7.430;2022-07-29T05:52:11;1.42;;;0.68;;
26860;SDS011;37676;46.956;7.430;2022-07-29T05:54:38;0.98;;;0.60;;
26860;SDS011;37676;46.956;7.430;2022-07-29T05:57:03;1.23;;;0.60;;
26860;SDS011;37676;46.956;7.430;2022-07-29T05:59:28;1.00;;;0.60;;
26860;SDS011;37676;46.956;7.430;2022-07-29T06:01:54;1.17;;;0.60;;
26860;SDS011;37676;46.956;7.430;2022-07-29T06:04:19;1.40;;;0.60;;
26860;SDS011;37676;46.956;7.430;2022-07-29T06:06:44;0.80;;;0.50;;
26860;SDS011;37676;46.956;7.430;2022-07-29T06:09:10;2.42;;;0.60;;
26860;SDS011;37676;46.956;7.430;2022-07-29T06:11:35;1.92;;;0.70;;
26860;SDS011;37676;46.956;7.430;2022-07-29T06:14:01;1.20;;;0.70;;
26860;SDS011;37676;46.956;7.430;2022-07-29T06:16:28;1.10;;;0.55;;
26860;SDS011;37676;46.956;7.430;2022-07-29T06:18:53;0.95;;;0.60;;
26860;SDS011;37676;46.956;7.430;2022-07-29T06:21:18;1.05;;;0.60;;
26860;SDS011;37676;46.956;7.430;2022-07-29T06:23:44;1.20;;;0.60;;
26860;SDS011;37676;46.956;7.430;2022-07-29T06:26:10;1.38;;;0.73;;
26860;SDS011;37676;46.956;7.430;2022-07-29T06:28:35;1.15;;;0.70;;
26860;SDS011;37676;46.956;7.430;2022-07-29T06:31:00;1.55;;;0.80;;
26860;SDS011;37676;46.956;7.430;2022-07-29T06:33:25;2.00;;;0.90;;
26860;SDS011;37676;46.956;7.430;2022-07-29T06:35:51;1.02;;;0.52;;
26860;SDS011;37676;46.956;7.430;2022-07-29T06:38:16;1.33;;;0.60;;
26860;SDS011;37676;46.956;7.430;2022-07-29T06:40:42;1.08;;;0.60;;
26860;SDS011;37676;46.956;7.430;2022-07-29T06:43:34;1.35;;;0.52;;
26860;SDS011;37676;46.956;7.430;2022-07-29T06:46:03;1.67;;;0.70;;
26860;SDS011;37676;46.956;7.430;2022-07-29T06:48:31;1.83;;;0.60;;
26860;SDS011;37676;46.956;7.430;2022-07-29T06:50:58;1.23;;;0.50;;
26860;SDS011;37676;46.956;7.430;2022-07-29T06:53:23;0.80;;;0.50;;
26860;SDS011;37676;46.956;7.430;2022-07-29T06:55:49;0.93;;;0.52;;
26860;SDS011;37676;46.956;7.430;2022-07-29T06:58:15;1.33;;;0.60;;
26860;SDS011;37676;46.956;7.430;2022-07-29T07:00:42;1.60;;;0.50;;
26860;SDS011;37676;46.956;7.430;2022-07-29T07:03:08;0.70;;;0.45;;
26860;SDS011;37676;46.956;7.430;2022-07-29T07:05:33;1.10;;;0.60;;
26860;SDS011;37676;46.956;7.430;2022-07-29T07:07:59;1.08;;;0.68;;
26860;SDS011;37676;46.956;7.430;2022-07-29T07:10:24;1.50;;;0.70;;
26860;SDS011;37676;46.956;7.430;2022-07-29T07:12:50;1.88;;;0.93;;
26860;SDS011;37676;46.956;7.430;2022-07-29T07:15:15;2.03;;;1.00;;
26860;SDS011;37676;46.956;7.430;2022-07-29T07:17:40;1.20;;;0.80;;
26860;SDS011;37676;46.956;7.430;2022-07-29T07:20:06;1.63;;;0.80;;
26860;SDS011;37676;46.956;7.430;2022-07-29T07:22:31;2.13;;;1.00;;
26860;SDS011;37676;46.956;7.430;2022-07-29T07:24:57;1.92;;;0.90;;
26860;SDS011;37676;46.956;7.430;2022-07-29T07:27:22;1.33;;;0.70;;
26860;SDS011;37676;46.956;7.430;2022-07-29T07:29:47;3.63;;;0.90;;
26860;SDS011;37676;46.956;7.430;2022-07-29T07:32:13;2.13;;;0.80;;
26860;SDS011;37676;46.956;7.430;2022-07-29T07:34:41;1.35;;;0.70;;
26860;SDS011;37676;46.956;7.430;2022-07-29T07:37:06;1.10;;;0.60;;
26860;SDS011;37676;46.956;7.430;2022-07-29T07:39:32;1.08;;;0.68;;
26860;SDS011;37676;46.956;7.430;2022-07-29T07:41:57;2.22;;;0.70;;
26860;SDS011;37676;46.956;7.430;2022-07-29T07:44:22;1.88;;;0.88;;
26860;SDS011;37676;46.956;7.430;2022-07-29T07:46:48;1.40;;;0.75;;
26860;SDS011;37676;46.956;7.430;2022-07-29T07:49:13;1.77;;;1.00;;
26860;SDS011;37676;46.956;7.430;2022-07-29T07:51:38;1.80;;;0.90;;
26860;SDS011;37676;46.956;7.430;2022-07-29T07:54:03;1.92;;;1.08;;
26860;SDS011;37676;46.956;7.430;2022-07-29T07:56:29;1.90;;;0.98;;
26860;SDS011;37676;46.956;7.430;2022-07-29T07:58:54;1.55;;;0.75;;
26860;SDS011;37676;46.956;7.430;2022-07-29T08:01:19;2.17;;;0.80;;
26860;SDS011;37676;46.956;7.430;2022-07-29T08:03:47;1.65;;;0.70;;
26860;SDS011;37676;46.956;7.430;2022-07-29T08:06:13;1.10;;;0.60;;
26860;SDS011;37676;46.956;7.430;2022-07-29T08:08:39;1.63;;;0.98;;
26860;SDS011;37676;46.956;7.430;2022-07-29T08:11:04;1.90;;;0.82;;
26860;SDS011;37676;46.956;7.430;2022-07-29T08:13:30;2.15;;;0.77;;
26860;SDS011;37676;46.956;7.430;2022-07-29T08:15:56;1.30;;;0.70;;
26860;SDS011;37676;46.956;7.430;2022-07-29T08:18:23;1.67;;;0.75;;
26860;SDS011;37676;46.956;7.430;2022-07-29T08:20:52;1.38;;;0.50;;
26860;SDS011;37676;46.956;7.430;2022-07-29T08:23:17;1.83;;;0.85;;
26860;SDS011;37676;46.956;7.430;2022-07-29T08:25:44;2.22;;;0.90;;
26860;SDS011;37676;46.956;7.430;2022-07-29T08:28:09;1.73;;;0.80;;
26860;SDS011;37676;46.956;7.430;2022-07-29T08:30:34;2.35;;;1.00;;
26860;SDS011;37676;46.956;7.430;2022-07-29T08:33:00;3.38;;;1.10;;
26860;SDS011;37676;46.956;7.430;2022-07-29T08:35:25;2.28;;;0.98;;
26860;SDS011;37676;46.956;7.430;2022-07-29T08:37:51;2.00;;;0.90;;
26860;SDS011;37676;46.956;7.430;2022-07-29T08:40:18;1.65;;;0.90;;
26860;SDS011;37676;46.956;7.430;2022-07-29T08:42:45;1.63;;;0.80;;
26860;SDS011;37676;46.956;7.430;2022-07-29T08:45:11;1.40;;;0.70;;
26860;SDS011;37676;46.956;7.430;2022-07-29T08:47:38;1.65;;;0.98;;
26860;SDS011;37676;46.956;7.430;2022-07-29T08:50:07;1.98;;;0.95;;
26860;SDS011;37676;46.956;7.430;2022-07-29T08:52:35;1.70;;;0.90;;
26860;SDS011;37676;46.956;7.430;2022-07-29T08:55:02;2.38;;;1.05;;
26860;SDS011;37676;46.956;7.430;2022-07-29T08:57:30;2.30;;;1.20;;
26860;SDS011;37676;46.956;7.430;2022-07-29T08:59:56;4.22;;;2.03;;
26860;SDS011;37676;46.956;7.430;2022-07-29T09:02:24;3.08;;;1.70;;
26860;SDS011;37676;46.956;7.430;2022-07-29T09:04:53;2.88;;;1.60;;
26860;SDS011;37676;46.956;7.430;2022-07-29T09:07:18;2.90;;;1.33;;
26860;SDS011;37676;46.956;7.430;2022-07-29T09:09:44;1.83;;;0.95;;
26860;SDS011;37676;46.956;7.430;2022-07-29T09:12:11;1.05;;;0.73;;
26860;SDS011;37676;46.956;7.430;2022-07-29T09:14:37;1.45;;;0.75;;
26860;SDS011;37676;46.956;7.430;2022-07-29T09:17:03;1.63;;;0.77;;
26860;SDS011;37676;46.956;7.430;2022-07-29T09:19:31;1.70;;;0.73;;
26860;SDS011;37676;46.956;7.430;2022-07-29T09:22:00;2.03;;;0.80;;
26860;SDS011;37676;46.956;7.430;2022-07-29T09:26:59;3.10;;;1.20;;
26860;SDS011;37676;46.956;7.430;2022-07-29T09:29:26;3.17;;;1.55;;
26860;SDS011;37676;46.956;7.430;2022-07-29T09:31:52;2.75;;;1.40;;
26860;SDS011;37676;46.956;7.430;2022-07-29T09:34:23;1.83;;;0.95;;
26860;SDS011;37676;46.956;7.430;2022-07-29T09:36:53;2.28;;;0.98;;
26860;SDS011;37676;46.956;7.430;2022-07-29T09:39:35;1.85;;;0.88;;
26860;SDS011;37676;46.956;7.430;2022-07-29T09:42:10;2.50;;;1.25;;
26860;SDS011;37676;46.956;7.430;2022-07-29T09:44:49;2.88;;;1.38;;
26860;SDS011;37676;46.956;7.430;2022-07-29T09:47:16;1.75;;;1.00;;
26860;SDS011;37676;46.956;7.430;2022-07-29T09:49:53;1.80;;;0.88;;
26860;SDS011;37676;46.956;7.430;2022-07-29T09:52:22;1.25;;;0.70;;
26860;SDS011;37676;46.956;7.430;2022-07-29T09:54:48;1.42;;;0.70;;
26860;SDS011;37676;46.956;7.430;2022-07-29T09:57:26;1.08;;;0.70;;
26860;SDS011;37676;46.956;7.430;2022-07-29T10:00:00;1.17;;;0.60;;
26860;SDS011;37676;46.956;7.430;2022-07-29T10:02:31;1.67;;;0.77;;
26860;SDS011;37676;46.956;7.430;2022-07-29T10:04:57;1.83;;;1.00;;
26860;SDS011;37676;46.956;7.430;2022-07-29T10:07:23;1.63;;;0.70;;
26860;SDS011;37676;46.956;7.430;2022-07-29T10:09:52;1.65;;;1.00;;
26860;SDS011;37676;46.956;7.430;2022-07-29T10:12:22;2.08;;;0.77;;
26860;SDS011;37676;46.956;7.430;2022-07-29T10:14:48;2.00;;;1.00;;
26860;SDS011;37676;46.956;7.430;2022-07-29T10:17:14;2.05;;;1.20;;
26860;SDS011;37676;46.956;7.430;2022-07-29T10:19:41;2.05;;;1.08;;
26860;SDS011;37676;46.956;7.430;2022-07-29T10:22:08;5.22;;;3.45;;
26860;SDS011;37676;46.956;7.430;2022-07-29T10:24:34;4.97;;;2.97;;
26860;SDS011;37676;46.956;7.430;2022-07-29T10:27:02;3.25;;;1.85;;
26860;SDS011;37676;46.956;7.430;2022-07-29T10:29:29;2.92;;;1.35;;
26860;SDS011;37676;46.956;7.430;2022-07-29T10:32:11;1.90;;;0.90;;
26860;SDS011;37676;46.956;7.430;2022-07-29T10:42:49;2.00;;;0.93;;
26860;SDS011;37676;46.956;7.430;2022-07-29T10:45:17;1.35;;;0.80;;
26860;SDS011;37676;46.956;7.430;2022-07-29T10:47:43;2.15;;;1.10;;
26860;SDS011;37676;46.956;7.430;2022-07-29T10:50:09;1.73;;;0.90;;
26860;SDS011;37676;46.956;7.430;2022-07-29T10:55:35;5.63;;;3.40;;
26860;SDS011;37676;46.956;7.430;2022-07-29T10:58:13;3.42;;;1.80;;
26860;SDS011;37676;46.956;7.430;2022-07-29T11:00:51;4.53;;;2.15;;
26860;SDS011;37676;46.956;7.430;2022-07-29T11:06:17;3.25;;;1.70;;
26860;SDS011;37676;46.956;7.430;2022-07-29T11:08:43;2.50;;;1.30;;
26860;SDS011;37676;46.956;7.430;2022-07-29T11:13:52;1.92;;;1.00;;
26860;SDS011;37676;46.956;7.430;2022-07-29T11:21:35;1.27;;;0.75;;
26860;SDS011;37676;46.956;7.430;2022-07-29T11:24:11;1.58;;;0.70;;
26860;SDS011;37676;46.956;7.430;2022-07-29T11:26:40;0.90;;;0.57;;
26860;SDS011;37676;46.956;7.430;2022-07-29T11:29:13;1.13;;;0.60;;
26860;SDS011;37676;46.956;7.430;2022-07-29T11:31:45;1.73;;;0.70;;
26860;SDS011;37676;46.956;7.430;2022-07-29T11:47:24;1.10;;;0.60;;
26860;SDS011;37676;46.956;7.430;2022-07-29T11:49:51;1.33;;;0.57;;
26860;SDS011;37676;46.956;7.430;2022-07-29T11:52:17;1.45;;;0.60;;
26860;SDS011;37676;46.956;7.430;2022-07-29T11:54:43;1.25;;;0.70;;
26860;SDS011;37676;46.956;7.430;2022-07-29T11:57:09;1.35;;;0.60;;
26860;SDS011;37676;46.956;7.430;2022-07-29T11:59:39;0.80;;;0.50;;
26860;SDS011;37676;46.956;7.430;2022-07-29T12:02:06;1.35;;;0.68;;
26860;SDS011;37676;46.956;7.430;2022-07-29T12:04:32;1.20;;;0.60;;
26860;SDS011;37676;46.956;7.430;2022-07-29T12:06:57;1.17;;;0.60;;
26860;SDS011;37676;46.956;7.430;2022-07-29T12:09:23;1.30;;;0.60;;
26860;SDS011;37676;46.956;7.430;2022-07-29T12:11:57;1.02;;;0.60;;
26860;SDS011;37676;46.956;7.430;2022-07-29T12:14:24;1.27;;;0.70;;
26860;SDS011;37676;46.956;7.430;2022-07-29T12:16:53;1.13;;;0.60;;
26860;SDS011;37676;46.956;7.430;2022-07-29T12:19:18;1.38;;;0.70;;
26860;SDS011;37676;46.956;7.430;2022-07-29T12:21:44;1.25;;;0.70;;
26860;SDS011;37676;46.956;7.430;2022-07-29T12:24:14;1.50;;;0.82;;
26860;SDS011;37676;46.956;7.430;2022-07-29T12:29:16;1.30;;;0.70;;
26860;SDS011;37676;46.956;7.430;2022-07-29T12:31:42;2.70;;;1.58;;
26860;SDS011;37676;46.956;7.430;2022-07-29T12:34:09;1.77;;;1.00;;
26860;SDS011;37676;46.956;7.430;2022-07-29T12:36:36;3.92;;;2.53;;
26860;SDS011;37676;46.956;7.430;2022-07-29T12:39:02;4.93;;;2.60;;
26860;SDS011;37676;46.956;7.430;2022-07-29T12:41:28;2.65;;;1.52;;
26860;SDS011;37676;46.956;7.430;2022-07-29T12:43:54;2.13;;;1.10;;
26860;SDS011;37676;46.956;7.430;2022-07-29T12:46:20;1.50;;;0.93;;
26860;SDS011;37676;46.956;7.430;2022-07-29T12:48:49;1.85;;;1.02;;
26860;SDS011;37676;46.956;7.430;2022-07-29T12:51:27;2.67;;;1.00;;
26860;SDS011;37676;46.956;7.430;2022-07-29T12:56:31;1.85;;;1.00;;
26860;SDS011;37676;46.956;7.430;2022-07-29T12:58:57;2.70;;;1.48;;
26860;SDS011;37676;46.956;7.430;2022-07-29T13:01:22;2.13;;;1.10;;
26860;SDS011;37676;46.956;7.430;2022-07-29T13:03:52;2.40;;;0.95;;
26860;SDS011;37676;46.956;7.430;2022-07-29T13:06:29;1.80;;;0.90;;
26860;SDS011;37676;46.956;7.430;2022-07-29T13:08:59;2.20;;;0.90;;
26860;SDS011;37676;46.956;7.430;2022-07-29T13:11:32;1.97;;;1.03;;
26860;SDS011;37676;46.956;7.430;2022-07-29T13:13:59;2.10;;;1.00;;
26860;SDS011;37676;46.956;7.430;2022-07-29T13:16:25;2.63;;;1.45;;
26860;SDS011;37676;46.956;7.430;2022-07-29T13:19:02;2.42;;;1.30;;
26860;SDS011;37676;46.956;7.430;2022-07-29T13:21:37;2.80;;;1.17;;
26860;SDS011;37676;46.956;7.430;2022-07-29T13:24:07;2.10;;;1.10;;
26860;SDS011;37676;46.956;7.430;2022-07-29T13:26:33;2.10;;;1.23;;
26860;SDS011;37676;46.956;7.430;2022-07-29T13:28:59;1.65;;;0.85;;
26860;SDS011;37676;46.956;7.430;2022-07-29T13:31:24;2.92;;;1.30;;
26860;SDS011;37676;46.956;7.430;2022-07-29T13:33:50;2.35;;;1.33;;
26860;SDS011;37676;46.956;7.430;2022-07-29T13:36:15;2.88;;;1.30;;
26860;SDS011;37676;46.956;7.430;2022-07-29T13:38:41;1.67;;;0.82;;
26860;SDS011;37676;46.956;7.430;2022-07-29T13:41:06;2.38;;;0.95;;
26860;SDS011;37676;46.956;7.430;2022-07-29T13:43:32;2.10;;;0.80;;
26860;SDS011;37676;46.956;7.430;2022-07-29T13:45:57;1.45;;;0.70;;
26860;SDS011;37676;46.956;7.430;2022-07-29T13:48:22;1.50;;;0.63;;
26860;SDS011;37676;46.956;7.430;2022-07-29T13:50:48;1.90;;;0.80;;
26860;SDS011;37676;46.956;7.430;2022-07-29T13:53:13;1.25;;;0.60;;
26860;SDS011;37676;46.956;7.430;2022-07-29T13:55:39;1.17;;;0.40;;
26860;SDS011;37676;46.956;7.430;2022-07-29T13:58:04;1.10;;;0.50;;
26860;SDS011;37676;46.956;7.430;2022-07-29T14:00:30;0.68;;;0.40;;
26860;SDS011;37676;46.956;7.430;2022-07-29T14:02:56;0.85;;;0.38;;
26860;SDS011;37676;46.956;7.430;2022-07-29T14:05:21;1.17;;;0.52;;
26860;SDS011;37676;46.956;7.430;2022-07-29T14:07:46;1.10;;;0.40;;
26860;SDS011;37676;46.956;7.430;2022-07-29T14:10:12;1.55;;;0.50;;
26860;SDS011;37676;46.956;7.430;2022-07-29T14:12:37;1.40;;;0.45;;
26860;SDS011;37676;46.956;7.430;2022-07-29T14:15:03;0.93;;;0.40;;
26860;SDS011;37676;46.956;7.430;2022-07-29T14:17:28;1.05;;;0.50;;
26860;SDS011;37676;46.956;7.430;2022-07-29T14:19:54;0.90;;;0.40;;
26860;SDS011;37676;46.956;7.430;2022-07-29T14:22:19;0.93;;;0.43;;
26860;SDS011;37676;46.956;7.430;2022-07-29T14:24:44;0.93;;;0.43;;
26860;SDS011;37676;46.956;7.430;2022-07-29T14:27:10;0.85;;;0.35;;
26860;SDS011;37676;46.956;7.430;2022-07-29T14:29:35;1.45;;;0.32;;
26860;SDS011;37676;46.956;7.430;2022-07-29T14:32:01;0.80;;;0.40;;
26860;SDS011;37676;46.956;7.430;2022-07-29T14:34:27;1.80;;;0.60;;
26860;SDS011;37676;46.956;7.430;2022-07-29T14:36:52;0.70;;;0.30;;
26860;SDS011;37676;46.956;7.430;2022-07-29T14:39:20;1.33;;;0.60;;
26860;SDS011;37676;46.956;7.430;2022-07-29T14:41:49;2.22;;;0.60;;
26860;SDS011;37676;46.956;7.430;2022-07-29T14:44:15;0.73;;;0.32;;
26860;SDS011;37676;46.956;7.430;2022-07-29T14:46:41;0.85;;;0.40;;
26860;SDS011;37676;46.956;7.430;2022-07-29T14:49:06;1.15;;;0.65;;
26860;SDS011;37676;46.956;7.430;2022-07-29T14:51:32;1.02;;;0.50;;
26860;SDS011;37676;46.956;7.430;2022-07-29T14:53:57;1.27;;;0.50;;
26860;SDS011;37676;46.956;7.430;2022-07-29T14:56:23;1.02;;;0.50;;
26860;SDS011;37676;46.956;7.430;2022-07-29T14:58:48;1.20;;;0.40;;
26860;SDS011;37676;46.956;7.430;2022-07-29T15:01:14;0.93;;;0.40;;
26860;SDS011;37676;46.956;7.430;2022-07-29T15:03:39;0.93;;;0.50;;
26860;SDS011;37676;46.956;7.430;2022-07-29T15:06:04;1.00;;;0.50;;
26860;SDS011;37676;46.956;7.430;2022-07-29T15:08:30;1.10;;;0.50;;
26860;SDS011;37676;46.956;7.430;2022-07-29T15:10:56;1.30;;;0.60;;
26860;SDS011;37676;46.956;7.430;2022-07-29T15:13:24;1.70;;;0.80;;
26860;SDS011;37676;46.956;7.430;2022-07-29T15:15:50;0.85;;;0.50;;
26860;SDS011;37676;46.956;7.430;2022-07-29T15:18:15;0.93;;;0.52;;
26860;SDS011;37676;46.956;7.430;2022-07-29T15:20:40;1.13;;;0.40;;
26860;SDS011;37676;46.956;7.430;2022-07-29T15:23:06;1.13;;;0.40;;
26860;SDS011;37676;46.956;7.430;2022-07-29T15:25:34;0.40;;;0.28;;
26860;SDS011;37676;46.956;7.430;2022-07-29T15:28:01;0.98;;;0.40;;
26860;SDS011;37676;46.956;7.430;2022-07-29T15:30:29;0.82;;;0.35;;
26860;SDS011;37676;46.956;7.430;2022-07-29T15:32:55;1.40;;;0.30;;
26860;SDS011;37676;46.956;7.430;2022-07-29T15:35:20;1.08;;;0.50;;
26860;SDS011;37676;46.956;7.430;2022-07-29T15:37:46;0.80;;;0.40;;
26860;SDS011;37676;46.956;7.430;2022-07-29T15:40:11;0.60;;;0.30;;
26860;SDS011;37676;46.956;7.430;2022-07-29T15:42:37;0.70;;;0.40;;